Time;durP1;ratioP1;P1;durP2;ratioP2;P2;SDS_P1;SDS_P2;PMS_P1;PMS_P2;Temp;Humidity;BMP_temperature;BMP_pressure;BME280_temperature;BME280_humidity;BME280_pressure;Samples;Min_cycle;Max_cycle;Signal;HPM_P1;HPM_P2
2023/07/17 00:02:04;;;;;;;33.30;22.02;;;;;;;;;;20921867;28;20546;-69
2023/07/17 00:12:05;;;;;;;22.45;14.25;;;;;;;;;;20921068;28;20036;-69
2023/07/17 00:22:07;;;;;;;4.97;3.35;;;;;;;;;;20918767;28;20045;-69
2023/07/17 00:32:08;;;;;;;9.18;3.70;;;;;;;;;;20917993;28;20132;-69
2023/07/17 00:42:09;;;;;;;7.13;3.00;;;;;;;;;;20917742;28;20061;-69
2023/07/17 00:52:10;;;;;;;4.43;3.30;;;;;;;;;;20917976;28;20055;-69
2023/07/17 01:02:13;;;;;;;6.30;2.95;;;;;;;;;;20916416;28;20116;-69
2023/07/17 01:12:14;;;;;;;5.82;3.05;;;;;;;;;;20916101;28;20075;-69
2023/07/17 01:22:21;;;;;;;6.07;2.72;;;;;;;;;;20915442;28;20077;-70
2023/07/17 01:32:22;;;;;;;11.40;2.70;;;;;;;;;;20914377;28;20508;-69
2023/07/17 01:42:23;;;;;;;5.65;2.70;;;;;;;;;;20913494;28;20057;-70
2023/07/17 01:52:24;;;;;;;6.80;2.25;;;;;;;;;;20913946;28;20056;-68
2023/07/17 02:02:25;;;;;;;5.93;2.80;;;;;;;;;;20913360;28;20049;-69
2023/07/17 02:12:26;;;;;;;3.72;2.15;;;;;;;;;;20913211;28;20088;-69
2023/07/17 02:22:27;;;;;;;3.75;2.45;;;;;;;;;;20911763;28;20049;-69
2023/07/17 02:32:29;;;;;;;4.78;2.72;;;;;;;;;;20912403;28;20098;-69
2023/07/17 02:42:30;;;;;;;4.68;2.05;;;;;;;;;;20919920;28;20045;-69
2023/07/17 02:52:34;;;;;;;4.22;2.35;;;;;;;;;;20927324;28;20497;-68
2023/07/17 03:02:36;;;;;;;4.65;2.17;;;;;;;;;;20924930;28;20081;-69
2023/07/17 03:12:37;;;;;;;4.50;2.40;;;;;;;;;;20925529;28;20125;-68
2023/07/17 03:22:38;;;;;;;3.28;2.10;;;;;;;;;;20923329;28;20056;-69
2023/07/17 03:32:39;;;;;;;2.83;2.03;;;;;;;;;;20923830;28;20049;-69
2023/07/17 03:42:40;;;;;;;3.10;1.90;;;;;;;;;;20923565;28;20509;-68
2023/07/17 03:52:41;;;;;;;5.97;3.13;;;;;;;;;;20921989;28;20409;-69
2023/07/17 04:02:43;;;;;;;3.55;2.30;;;;;;;;;;20920285;28;20037;-69
2023/07/17 04:12:44;;;;;;;4.00;2.30;;;;;;;;;;20920572;28;20047;-69
2023/07/17 04:22:45;;;;;;;8.60;2.30;;;;;;;;;;20919809;28;20045;-69
2023/07/17 04:32:46;;;;;;;5.47;2.67;;;;;;;;;;20919237;28;20048;-69
2023/07/17 04:42:48;;;;;;;3.90;2.30;;;;;;;;;;20918392;28;20103;-69
2023/07/17 04:52:49;;;;;;;5.55;2.47;;;;;;;;;;20916037;28;20080;-69
2023/07/17 05:02:50;;;;;;;5.85;2.30;;;;;;;;;;20915863;28;20495;-69
2023/07/17 05:12:51;;;;;;;5.28;2.42;;;;;;;;;;20916455;28;20060;-68
2023/07/17 05:22:52;;;;;;;5.18;2.70;;;;;;;;;;20913845;28;20045;-69
2023/07/17 05:32:53;;;;;;;5.45;2.80;;;;;;;;;;20914723;28;20049;-68
2023/07/17 05:42:54;;;;;;;7.25;2.25;;;;;;;;;;20913383;28;20077;-68
2023/07/17 05:52:55;;;;;;;6.22;2.25;;;;;;;;;;20914186;28;20175;-69
2023/07/17 06:02:56;;;;;;;4.25;2.55;;;;;;;;;;20913510;28;20187;-69
2023/07/17 06:12:57;;;;;;;10.30;2.75;;;;;;;;;;20917173;28;20041;-68
2023/07/17 06:22:58;;;;;;;6.93;2.30;;;;;;;;;;20929642;28;20405;-69
2023/07/17 06:33:00;;;;;;;7.40;2.75;;;;;;;;;;20928606;28;20521;-69
2023/07/17 06:43:01;;;;;;;8.63;3.30;;;;;;;;;;20927101;28;20084;-69
2023/07/17 06:53:02;;;;;;;11.82;2.58;;;;;;;;;;20926257;28;20045;-68
2023/07/17 07:03:03;;;;;;;7.00;3.30;;;;;;;;;;20926125;28;20175;-68
2023/07/17 07:13:04;;;;;;;7.88;3.03;;;;;;;;;;20925484;28;20041;-69
2023/07/17 07:23:05;;;;;;;10.93;3.60;;;;;;;;;;20923945;28;20128;-69
2023/07/17 07:33:06;;;;;;;11.85;3.85;;;;;;;;;;20924476;28;20120;-69
2023/07/17 07:43:07;;;;;;;11.00;4.13;;;;;;;;;;20923256;28;20103;-69
2023/07/17 07:53:09;;;;;;;10.80;3.30;;;;;;;;;;20922853;28;20045;-69
2023/07/17 08:03:10;;;;;;;9.38;4.40;;;;;;;;;;20921881;28;20482;-69
2023/07/17 08:13:11;;;;;;;13.57;4.32;;;;;;;;;;20922014;28;20041;-69
2023/07/17 08:23:12;;;;;;;11.55;4.25;;;;;;;;;;20920498;28;20041;-71
2023/07/17 08:33:13;;;;;;;12.25;4.68;;;;;;;;;;20917941;28;20132;-71
2023/07/17 08:43:14;;;;;;;13.30;4.82;;;;;;;;;;20917571;28;20060;-71
2023/07/17 08:53:17;;;;;;;12.70;5.30;;;;;;;;;;20917189;28;20071;-72
2023/07/17 09:03:19;;;;;;;11.10;4.40;;;;;;;;;;20916598;28;20072;-71
2023/07/17 09:13:20;;;;;;;9.90;4.65;;;;;;;;;;20915244;28;20095;-72
2023/07/17 09:23:24;;;;;;;8.02;3.80;;;;;;;;;;20914649;28;20099;-72
2023/07/17 09:33:25;;;;;;;9.73;4.10;;;;;;;;;;20914871;28;20098;-70
2023/07/17 09:43:30;;;;;;;12.38;3.90;;;;;;;;;;20912798;28;20170;-70
2023/07/17 09:53:32;;;;;;;10.23;4.23;;;;;;;;;;20913411;28;20108;-70
2023/07/17 10:03:33;;;;;;;12.88;4.47;;;;;;;;;;20911690;28;20041;-71
2023/07/17 10:13:34;;;;;;;8.85;3.60;;;;;;;;;;20912443;28;20143;-69
2023/07/17 10:23:36;;;;;;;11.02;4.35;;;;;;;;;;20912279;28;20049;-69
2023/07/17 10:33:37;;;;;;;8.32;4.15;;;;;;;;;;20911545;28;20051;-70
2023/07/17 10:43:49;;;;;;;7.95;4.15;;;;;;;;;;20912296;28;20452;-69
2023/07/17 10:53:54;;;;;;;11.15;4.18;;;;;;;;;;20911768;28;20100;-70
2023/07/17 11:03:55;;;;;;;8.03;3.57;;;;;;;;;;20920376;28;20041;-73
2023/07/17 11:13:56;;;;;;;9.10;3.60;;;;;;;;;;20925601;28;20171;-73
2023/07/17 11:23:58;;;;;;;9.63;3.65;;;;;;;;;;20925648;28;20045;-73
2023/07/17 11:34:00;;;;;;;11.57;3.85;;;;;;;;;;20924485;28;20445;-73
2023/07/17 11:44:01;;;;;;;8.57;2.90;;;;;;;;;;20922220;28;20045;-73
2023/07/17 11:54:02;;;;;;;8.45;3.22;;;;;;;;;;20922769;28;20479;-73
2023/07/17 12:04:16;;;;;;;10.57;3.83;;;;;;;;;;20920463;28;20049;-73
2023/07/17 12:14:17;;;;;;;8.07;3.57;;;;;;;;;;20920700;28;20047;-66
2023/07/17 12:24:19;;;;;;;7.97;3.38;;;;;;;;;;20919074;28;20076;-67
2023/07/17 12:34:20;;;;;;;8.55;3.75;;;;;;;;;;20919459;28;20132;-66
2023/07/17 12:44:21;;;;;;;9.55;3.40;;;;;;;;;;20919580;28;20126;-66
2023/07/17 12:54:22;;;;;;;12.40;5.72;;;;;;;;;;20917165;28;20122;-66
2023/07/17 13:04:23;;;;;;;10.98;3.20;;;;;;;;;;20916824;28;20490;-67
2023/07/17 13:14:24;;;;;;;18.38;8.13;;;;;;;;;;20916516;28;20045;-67
2023/07/17 13:24:25;;;;;;;7.90;3.17;;;;;;;;;;20915130;28;20045;-67
2023/07/17 13:34:27;;;;;;;11.02;3.25;;;;;;;;;;20913829;28;20045;-66
2023/07/17 13:44:28;;;;;;;8.30;2.92;;;;;;;;;;20913454;28;20049;-67
2023/07/17 13:54:30;;;;;;;10.38;4.65;;;;;;;;;;20914375;28;20053;-66
2023/07/17 14:04:31;;;;;;;7.68;2.90;;;;;;;;;;20913624;28;20094;-66
2023/07/17 14:14:32;;;;;;;11.98;3.25;;;;;;;;;;20913385;28;20045;-66
2023/07/17 14:24:33;;;;;;;10.88;3.50;;;;;;;;;;20912932;28;20071;-66
2023/07/17 14:34:39;;;;;;;8.38;2.67;;;;;;;;;;20917259;28;20497;-66
2023/07/17 14:44:40;;;;;;;13.70;3.10;;;;;;;;;;20926924;28;20057;-66
2023/07/17 14:54:41;;;;;;;8.25;3.40;;;;;;;;;;20927259;28;20447;-66
2023/07/17 15:04:42;;;;;;;9.15;2.58;;;;;;;;;;20925235;28;20048;-67
2023/07/17 15:14:44;;;;;;;10.07;3.33;;;;;;;;;;20925766;28;20040;-67
2023/07/17 15:24:45;;;;;;;6.65;2.72;;;;;;;;;;20923453;28;20107;-73
2023/07/17 15:34:46;;;;;;;11.15;3.47;;;;;;;;;;20924208;28;20074;-72
2023/07/17 15:44:47;;;;;;;5.65;3.20;;;;;;;;;;20920972;28;20049;-72
2023/07/17 15:54:48;;;;;;;6.95;2.25;;;;;;;;;;20922713;28;20048;-70
2023/07/17 16:04:49;;;;;;;7.03;2.88;;;;;;;;;;20921636;28;20045;-71
2023/07/17 16:14:51;;;;;;;7.07;2.83;;;;;;;;;;20919303;28;20044;-70
2023/07/17 16:24:52;;;;;;;6.13;2.50;;;;;;;;;;20920063;28;20064;-71
2023/07/17 16:34:53;;;;;;;6.47;3.10;;;;;;;;;;20919502;28;20474;-70
2023/07/17 16:44:54;;;;;;;9.48;3.63;;;;;;;;;;20917088;28;20049;-70
2023/07/17 16:54:55;;;;;;;8.32;2.80;;;;;;;;;;20916460;28;20133;-69
2023/07/17 17:04:56;;;;;;;11.88;3.53;;;;;;;;;;20916227;28;20123;-70
2023/07/17 17:14:57;;;;;;;8.32;2.40;;;;;;;;;;20916238;28;20099;-69
2023/07/17 17:24:58;;;;;;;5.25;3.17;;;;;;;;;;20915152;28;20044;-69
2023/07/17 17:35:00;;;;;;;9.20;3.38;;;;;;;;;;20914531;28;20041;-69
2023/07/17 17:45:01;;;;;;;5.80;2.95;;;;;;;;;;20915077;28;20074;-71
2023/07/17 17:55:02;;;;;;;5.40;2.60;;;;;;;;;;20913760;28;20056;-73
2023/07/17 18:05:03;;;;;;;8.77;3.45;;;;;;;;;;20911795;28;20049;-72
2023/07/17 18:15:04;;;;;;;4.63;2.45;;;;;;;;;;20927806;28;20041;-71
2023/07/17 18:25:07;;;;;;;9.98;3.53;;;;;;;;;;20931184;28;20556;-70
2023/07/17 18:35:08;;;;;;;6.88;3.22;;;;;;;;;;20927944;28;20045;-70
2023/07/17 18:45:10;;;;;;;7.40;3.00;;;;;;;;;;20926455;28;20049;-70
2023/07/17 18:55:11;;;;;;;8.18;3.08;;;;;;;;;;20927009;28;20443;-71
2023/07/17 19:05:12;;;;;;;9.73;4.03;;;;;;;;;;20925963;28;20544;-70
2023/07/17 19:15:14;;;;;;;12.10;4.93;;;;;;;;;;20924523;28;20052;-70
2023/07/17 19:25:15;;;;;;;13.02;5.40;;;;;;;;;;20923970;28;20049;-71
2023/07/17 19:35:17;;;;;;;16.27;6.75;;;;;;;;;;20922498;28;20048;-70
2023/07/17 19:45:18;;;;;;;14.68;5.75;;;;;;;;;;20921188;28;20063;-70
2023/07/17 19:55:19;;;;;;;9.85;4.63;;;;;;;;;;20922620;28;20151;-70
2023/07/17 20:05:20;;;;;;;11.88;5.40;;;;;;;;;;20921024;28;20048;-70
2023/07/17 20:15:21;;;;;;;8.45;4.55;;;;;;;;;;20920674;28;20532;-71
2023/07/17 20:25:23;;;;;;;12.52;5.43;;;;;;;;;;20919955;28;20049;-70
2023/07/17 20:35:24;;;;;;;14.05;6.47;;;;;;;;;;20918835;28;20051;-70
2023/07/17 20:45:47;;;;;;;13.07;5.32;;;;;;;;;;20917401;28;20053;-70
2023/07/17 20:55:48;;;;;;;12.17;5.77;;;;;;;;;;20918050;28;20115;-70
2023/07/17 21:05:49;;;;;;;15.40;5.38;;;;;;;;;;20915892;28;20445;-70
2023/07/17 21:15:51;;;;;;;10.32;4.80;;;;;;;;;;20916486;28;20498;-71
2023/07/17 21:25:53;;;;;;;10.48;5.20;;;;;;;;;;20915622;28;20045;-71
2023/07/17 21:35:54;;;;;;;20.60;12.82;;;;;;;;;;20915016;28;20455;-70
2023/07/17 21:45:55;;;;;;;13.88;5.20;;;;;;;;;;20912166;28;20053;-71
2023/07/17 21:55:56;;;;;;;13.00;5.22;;;;;;;;;;20913864;28;20522;-70
2023/07/17 22:05:57;;;;;;;12.18;5.60;;;;;;;;;;20913458;28;20045;-70
2023/07/17 22:15:59;;;;;;;12.32;5.75;;;;;;;;;;20912985;28;20045;-71
2023/07/17 22:26:00;;;;;;;12.02;5.95;;;;;;;;;;20912918;28;20048;-70
2023/07/17 22:36:01;;;;;;;11.57;5.32;;;;;;;;;;20912813;28;20048;-71
2023/07/17 22:46:02;;;;;;;13.23;4.55;;;;;;;;;;20910775;28;20049;-71
2023/07/17 22:56:03;;;;;;;10.52;5.40;;;;;;;;;;20916022;28;20057;-70
2023/07/17 23:06:04;;;;;;;11.85;5.72;;;;;;;;;;20927001;28;20041;-70
2023/07/17 23:16:05;;;;;;;11.73;8.35;;;;;;;;;;20926073;28;20076;-70
2023/07/17 23:26:07;;;;;;;12.35;5.32;;;;;;;;;;20925153;28;20067;-70
2023/07/17 23:36:08;;;;;;;11.98;4.78;;;;;;;;;;20924538;28;20116;-70
2023/07/17 23:46:10;;;;;;;11.38;5.03;;;;;;;;;;20922435;28;20131;-70
2023/07/17 23:56:11;;;;;;;10.95;4.97;;;;;;;;;;20921626;28;20051;-70
